Terminal Aerodrome Forecast
Issued by NWS Twin Cities, MN

Home | Current Version | Previous Version | Text Only | Print | Product List | Glossary Off
Versions: 1 2 3 4 5 6 7 8 9 10 11 12 13 14 15 16 17 18 19 20 21 22 23 24 25 26 27 28

000
FTUS43 KMPX 170100 AAA
TAFMSP
TAF AMD
KMSP 170114Z 1701/1806 03015G23KT 4SM -RASN BR OVC007
      TEMPO 1702/1704 1SM -SN BR OVC007
     FM170400 01015G22KT 4SM -SN BR BKN007 OVC015
     FM170600 34012G20KT P6SM OVC015
     FM171200 34007KT P6SM OVC020
     FM171800 36009KT P6SM SCT020 OVC040
     FM180000 32008KT P6SM SCT100=

USA.gov is the U.S. government's official web portal to all federal, state and local government web resources and services.